Time;durP1;ratioP1;P1;durP2;ratioP2;P2;SDS_P1;SDS_P2;PMS_P1;PMS_P2;Temp;Humidity;BMP_temperature;BMP_pressure;BME280_temperature;BME280_humidity;BME280_pressure;Samples;Min_cycle;Max_cycle;Signal;HPM_P1;HPM_P2
2023/02/20 00:00:41;;;;;;;30.50;11.93;;;;;;;;;;5070178;28;20060;-50
2023/02/20 00:03:07;;;;;;;24.20;11.73;;;;;;;;;;5071445;28;20374;-50
2023/02/20 00:05:33;;;;;;;28.65;14.10;;;;;;;;;;5071270;28;20035;-50
2023/02/20 00:07:58;;;;;;;29.67;12.45;;;;;;;;;;5071451;28;20108;-50
2023/02/20 00:10:24;;;;;;;27.98;12.52;;;;;;;;;;5071190;28;20036;-50
2023/02/20 00:12:50;;;;;;;25.30;11.05;;;;;;;;;;5071483;28;20035;-51
2023/02/20 00:15:18;;;;;;;18.60;11.43;;;;;;;;;;5071235;28;20044;-50
2023/02/20 00:17:46;;;;;;;26.98;11.07;;;;;;;;;;5070077;28;20144;-50
2023/02/20 00:20:15;;;;;;;27.45;11.57;;;;;;;;;;5071235;28;20028;-50
2023/02/20 00:22:41;;;;;;;24.25;10.55;;;;;;;;;;5071194;28;20101;-50
2023/02/20 00:25:06;;;;;;;25.33;12.35;;;;;;;;;;5071179;28;20083;-50
2023/02/20 00:27:32;;;;;;;21.55;11.10;;;;;;;;;;5071095;28;20028;-50
2023/02/20 00:29:57;;;;;;;22.80;11.75;;;;;;;;;;5071148;28;20024;-50
2023/02/20 00:32:23;;;;;;;25.73;11.63;;;;;;;;;;5069662;28;20037;-50
2023/02/20 00:34:48;;;;;;;23.90;10.55;;;;;;;;;;5069839;28;20043;-50
2023/02/20 00:37:14;;;;;;;23.52;9.32;;;;;;;;;;5071012;28;20078;-50
2023/02/20 00:39:39;;;;;;;18.38;9.60;;;;;;;;;;5069807;28;20064;-50
2023/02/20 00:42:05;;;;;;;22.20;10.07;;;;;;;;;;5070932;28;20062;-50
2023/02/20 00:44:30;;;;;;;22.95;11.13;;;;;;;;;;5069604;28;20039;-50
2023/02/20 00:46:55;;;;;;;16.20;8.68;;;;;;;;;;5071182;28;20031;-50
2023/02/20 00:49:21;;;;;;;25.45;12.60;;;;;;;;;;5070856;28;20033;-50
2023/02/20 00:51:47;;;;;;;23.35;10.40;;;;;;;;;;5071198;28;20020;-50
2023/02/20 00:54:13;;;;;;;24.80;10.00;;;;;;;;;;5071071;28;20028;-50
2023/02/20 00:56:39;;;;;;;21.40;10.55;;;;;;;;;;5070875;28;20071;-50
2023/02/20 00:59:05;;;;;;;26.88;10.15;;;;;;;;;;5053062;28;20029;-50
2023/02/20 01:01:30;;;;;;;28.65;10.93;;;;;;;;;;5069509;28;20021;-50
2023/02/20 01:03:55;;;;;;;24.42;10.07;;;;;;;;;;5070942;28;20027;-50
2023/02/20 01:06:21;;;;;;;22.45;10.57;;;;;;;;;;5070643;28;20471;-50
2023/02/20 01:08:46;;;;;;;28.65;9.82;;;;;;;;;;5073488;28;20040;-50
2023/02/20 01:11:12;;;;;;;26.42;11.20;;;;;;;;;;5074610;28;20025;-50
2023/02/20 01:13:38;;;;;;;25.00;9.80;;;;;;;;;;5072982;28;20036;-50
2023/02/20 01:16:05;;;;;;;23.73;10.65;;;;;;;;;;5073451;28;20523;-50
2023/02/20 01:18:31;;;;;;;22.92;11.20;;;;;;;;;;5074556;28;20044;-50
2023/02/20 01:20:56;;;;;;;20.35;9.60;;;;;;;;;;5072942;28;20016;-49
2023/02/20 01:23:22;;;;;;;28.13;9.65;;;;;;;;;;5074109;28;20063;-50
2023/02/20 01:25:47;;;;;;;23.73;9.68;;;;;;;;;;5074054;28;20066;-50
2023/02/20 01:28:13;;;;;;;24.77;8.73;;;;;;;;;;5074004;28;20070;-50
2023/02/20 01:30:39;;;;;;;20.55;11.00;;;;;;;;;;5072804;28;20470;-50
2023/02/20 01:33:05;;;;;;;22.48;9.30;;;;;;;;;;5073748;28;20040;-50
2023/02/20 01:35:31;;;;;;;24.95;10.20;;;;;;;;;;5073980;28;20033;-50
2023/02/20 01:37:59;;;;;;;27.58;10.30;;;;;;;;;;5072727;28;20036;-50
2023/02/20 01:40:26;;;;;;;17.70;9.07;;;;;;;;;;5072510;28;20066;-50
2023/02/20 01:42:52;;;;;;;19.75;8.50;;;;;;;;;;5072526;28;20058;-50
2023/02/20 01:45:28;;;;;;;24.63;9.68;;;;;;;;;;5072474;28;20017;-50
2023/02/20 01:47:55;;;;;;;26.90;11.80;;;;;;;;;;5072458;28;20047;-50
2023/02/20 01:50:26;;;;;;;22.00;9.27;;;;;;;;;;5072334;28;20031;-50
2023/02/20 01:52:53;;;;;;;22.92;8.77;;;;;;;;;;5055660;28;20056;-50
2023/02/20 01:55:21;;;;;;;18.25;8.30;;;;;;;;;;5072260;28;20079;-50
2023/02/20 01:57:51;;;;;;;22.13;10.15;;;;;;;;;;5072346;28;20036;-50
2023/02/20 02:00:19;;;;;;;30.15;10.88;;;;;;;;;;5073453;28;20381;-50
2023/02/20 02:03:07;;;;;;;21.83;9.75;;;;;;;;;;5073683;28;20021;-50
2023/02/20 02:05:33;;;;;;;19.95;9.15;;;;;;;;;;5062450;28;20079;-50
2023/02/20 02:08:00;;;;;;;21.27;9.63;;;;;;;;;;5072012;28;20502;-50
2023/02/20 02:10:28;;;;;;;22.38;9.35;;;;;;;;;;5073566;28;20034;-50
2023/02/20 02:12:56;;;;;;;18.65;8.95;;;;;;;;;;5073567;28;20044;-50
2023/02/20 02:15:22;;;;;;;19.65;9.95;;;;;;;;;;5073106;28;20457;-50
2023/02/20 02:18:06;;;;;;;22.65;9.77;;;;;;;;;;5071897;28;20027;-50
2023/02/20 02:20:50;;;;;;;23.42;9.65;;;;;;;;;;5070795;28;20467;-50
2023/02/20 02:23:36;;;;;;;18.23;9.55;;;;;;;;;;5071654;28;20067;-50
2023/02/20 02:26:07;;;;;;;15.63;7.95;;;;;;;;;;5072866;28;20032;-50
2023/02/20 02:28:37;;;;;;;18.92;8.25;;;;;;;;;;5072931;28;20112;-50
2023/02/20 02:31:08;;;;;;;15.95;7.85;;;;;;;;;;5072931;28;20410;-50
2023/02/20 02:33:37;;;;;;;19.25;10.13;;;;;;;;;;5071272;28;20554;-50
2023/02/20 02:36:02;;;;;;;22.90;8.98;;;;;;;;;;5072770;28;20082;-50
2023/02/20 02:38:37;;;;;;;16.92;6.97;;;;;;;;;;5072747;28;20028;-50
2023/02/20 02:41:10;;;;;;;16.35;8.70;;;;;;;;;;5072685;28;20036;-50
2023/02/20 02:43:36;;;;;;;;;;;;;;;;;;5073109;28;20082;-49
2023/02/20 02:46:24;;;;;;;16.42;7.32;;;;;;;;;;5071268;28;20321;-50
2023/02/20 02:48:55;;;;;;;18.70;10.02;;;;;;;;;;5057494;28;20094;-50
2023/02/20 02:51:24;;;;;;;16.13;8.00;;;;;;;;;;5072435;28;20090;-50
2023/02/20 02:54:06;;;;;;;23.42;9.52;;;;;;;;;;5071150;28;20439;-50
2023/02/20 02:56:36;;;;;;;13.43;7.82;;;;;;;;;;5072342;28;20028;-50
2023/02/20 02:59:01;;;;;;;14.52;8.32;;;;;;;;;;5072355;28;20033;-50
2023/02/20 03:01:29;;;;;;;15.52;7.65;;;;;;;;;;5072467;28;20020;-50
2023/02/20 03:03:57;;;;;;;25.30;9.30;;;;;;;;;;5070947;28;20031;-50
2023/02/20 03:06:33;;;;;;;21.52;9.77;;;;;;;;;;5072170;28;20149;-50
2023/02/20 03:09:05;;;;;;;20.17;8.98;;;;;;;;;;5072201;28;20035;-50
2023/02/20 03:11:32;;;;;;;25.17;9.88;;;;;;;;;;5072378;28;20419;-50
2023/02/20 03:16:42;;;;;;;27.67;10.45;;;;;;;;;;5070763;28;20040;-50
2023/02/20 03:19:12;;;;;;;18.60;7.57;;;;;;;;;;5072002;28;20127;-50
2023/02/20 03:21:41;;;;;;;17.50;9.82;;;;;;;;;;5070794;28;20041;-50
2023/02/20 03:24:08;;;;;;;26.25;9.32;;;;;;;;;;5071797;28;20009;-50
2023/02/20 03:26:35;;;;;;;13.35;8.02;;;;;;;;;;5071766;28;20052;-50
2023/02/20 03:29:26;;;;;;;21.10;10.10;;;;;;;;;;5070517;28;20107;-50
2023/02/20 03:43:21;;;;;;;20.13;7.40;;;;;;;;;;5070367;28;20029;-50
2023/02/20 03:45:47;;;;;;;20.02;8.23;;;;;;;;;;5070312;28;20025;-50
2023/02/20 03:48:21;;;;;;;18.58;8.13;;;;;;;;;;5070218;28;20036;-50
2023/02/20 03:50:47;;;;;;;18.67;7.32;;;;;;;;;;5070227;28;20036;-50
2023/02/20 03:53:13;;;;;;;14.18;7.78;;;;;;;;;;5070101;28;20394;-50
2023/02/20 03:55:39;;;;;;;16.83;9.00;;;;;;;;;;5070183;28;20028;-50
2023/02/20 03:58:10;;;;;;;20.35;7.63;;;;;;;;;;5071513;28;20024;-49
2023/02/20 04:00:42;;;;;;;16.80;7.47;;;;;;;;;;5070035;28;20459;-50
2023/02/20 04:03:14;;;;;;;21.13;8.88;;;;;;;;;;5070131;28;20024;-50
2023/02/20 04:05:43;;;;;;;15.52;7.85;;;;;;;;;;5070034;28;20024;-50
2023/02/20 04:08:10;;;;;;;14.00;7.45;;;;;;;;;;5070181;28;20074;-50
2023/02/20 04:10:42;;;;;;;19.60;8.52;;;;;;;;;;5069882;28;20034;-50
2023/02/20 04:13:09;;;;;;;25.27;9.75;;;;;;;;;;5071385;28;20352;-50
2023/02/20 04:15:36;;;;;;;16.80;6.72;;;;;;;;;;5069973;28;20021;-49
2023/02/20 04:18:05;;;;;;;20.30;8.48;;;;;;;;;;5070035;28;20029;-50
2023/02/20 04:20:30;;;;;;;19.95;7.07;;;;;;;;;;5069908;28;20028;-50
2023/02/20 04:23:18;;;;;;;18.55;6.97;;;;;;;;;;5071124;28;20128;-50
2023/02/20 04:25:52;;;;;;;16.85;7.25;;;;;;;;;;5069879;28;20495;-50
2023/02/20 04:28:19;;;;;;;14.98;7.43;;;;;;;;;;5069870;28;20399;-50
2023/02/20 04:30:51;;;;;;;14.95;8.60;;;;;;;;;;5069880;28;20024;-50
2023/02/20 04:33:17;;;;;;;16.83;8.25;;;;;;;;;;5069539;28;20075;-50
2023/02/20 04:35:44;;;;;;;15.40;7.57;;;;;;;;;;5053475;28;20457;-50
2023/02/20 04:38:10;;;;;;;20.63;7.65;;;;;;;;;;5069760;28;20124;-49
2023/02/20 04:40:36;;;;;;;19.77;8.93;;;;;;;;;;5069780;28;20016;-50
2023/02/20 04:43:02;;;;;;;18.83;7.85;;;;;;;;;;5071205;28;20056;-50
2023/02/20 04:45:28;;;;;;;17.02;6.57;;;;;;;;;;5073595;28;20020;-50
2023/02/20 04:47:54;;;;;;;20.13;8.32;;;;;;;;;;5073589;28;20079;-50
2023/02/20 04:50:20;;;;;;;15.65;7.43;;;;;;;;;;5074789;28;20017;-50
2023/02/20 04:52:47;;;;;;;22.42;7.70;;;;;;;;;;5073462;28;20451;-49
2023/02/20 04:55:12;;;;;;;15.38;6.10;;;;;;;;;;5074793;28;20069;-50
2023/02/20 04:57:38;;;;;;;16.60;8.18;;;;;;;;;;5074735;28;20070;-50
2023/02/20 05:00:04;;;;;;;16.50;8.45;;;;;;;;;;5073311;28;20070;-50
2023/02/20 05:02:30;;;;;;;14.65;7.15;;;;;;;;;;5074500;28;20043;-49
2023/02/20 05:04:55;;;;;;;18.73;7.60;;;;;;;;;;5074573;28;20020;-50
2023/02/20 05:07:20;;;;;;;20.80;7.63;;;;;;;;;;5074381;28;20052;-50
2023/02/20 05:09:46;;;;;;;15.48;6.50;;;;;;;;;;5074514;28;20048;-50
2023/02/20 05:12:11;;;;;;;22.92;7.93;;;;;;;;;;5074318;28;20039;-49
2023/02/20 05:14:36;;;;;;;14.25;6.35;;;;;;;;;;5074685;28;20027;-50
2023/02/20 05:17:02;;;;;;;14.13;7.78;;;;;;;;;;5074335;28;20116;-50
2023/02/20 05:19:27;;;;;;;14.88;6.75;;;;;;;;;;5074312;28;20021;-50
2023/02/20 05:24:37;;;;;;;17.95;7.93;;;;;;;;;;5074523;28;20025;-50
2023/02/20 05:27:03;;;;;;;21.88;8.38;;;;;;;;;;5074117;28;20025;-50
2023/02/20 05:29:28;;;;;;;28.48;15.18;;;;;;;;;;5074109;28;20104;-50
2023/02/20 05:31:53;;;;;;;16.35;9.23;;;;;;;;;;5074386;28;20020;-50
2023/02/20 05:34:24;;;;;;;21.25;9.95;;;;;;;;;;5073801;28;20067;-50
2023/02/20 05:36:50;;;;;;;21.70;8.15;;;;;;;;;;5073950;28;20039;-50
2023/02/20 05:39:15;;;;;;;18.38;8.52;;;;;;;;;;5073869;28;20029;-50
2023/02/20 05:41:40;;;;;;;19.27;8.15;;;;;;;;;;5073965;28;20107;-50
2023/02/20 05:44:06;;;;;;;26.00;9.23;;;;;;;;;;5073832;28;20075;-50
2023/02/20 05:46:31;;;;;;;15.23;5.57;;;;;;;;;;5073635;28;20028;-50
2023/02/20 05:48:57;;;;;;;19.40;7.57;;;;;;;;;;5074072;28;20021;-50
2023/02/20 05:51:24;;;;;;;18.48;7.40;;;;;;;;;;5073599;28;20467;-50
2023/02/20 05:53:49;;;;;;;18.45;7.07;;;;;;;;;;5073632;28;20032;-50
2023/02/20 05:56:15;;;;;;;13.95;6.85;;;;;;;;;;5073610;28;20032;-50
2023/02/20 05:58:44;;;;;;;16.55;7.50;;;;;;;;;;5073653;28;20178;-50
2023/02/20 06:01:15;;;;;;;22.08;7.45;;;;;;;;;;5073597;28;20017;-49
2023/02/20 06:03:41;;;;;;;15.43;7.40;;;;;;;;;;5073420;28;20123;-50
2023/02/20 06:06:06;;;;;;;17.55;7.70;;;;;;;;;;5073447;28;20103;-50
2023/02/20 06:08:32;;;;;;;11.50;5.35;;;;;;;;;;5073621;28;20029;-50
2023/02/20 06:10:57;;;;;;;18.33;8.15;;;;;;;;;;5073661;28;20081;-50
2023/02/20 06:13:23;;;;;;;12.82;6.97;;;;;;;;;;5073212;28;20020;-50
2023/02/20 06:15:48;;;;;;;14.38;6.90;;;;;;;;;;5073197;28;20024;-50
2023/02/20 06:18:14;;;;;;;15.57;7.25;;;;;;;;;;5073270;28;20035;-50
2023/02/20 06:20:39;;;;;;;15.38;6.55;;;;;;;;;;5073238;28;20371;-50
2023/02/20 06:23:05;;;;;;;18.67;6.90;;;;;;;;;;5073072;28;20106;-50
2023/02/20 06:25:30;;;;;;;15.82;6.00;;;;;;;;;;5073365;28;20558;-50
2023/02/20 06:27:56;;;;;;;14.43;6.45;;;;;;;;;;5071685;28;20494;-50
2023/02/20 06:30:21;;;;;;;13.82;6.07;;;;;;;;;;5072930;28;20065;-50
2023/02/20 06:32:47;;;;;;;22.00;7.30;;;;;;;;;;5072936;28;20044;-50
2023/02/20 06:35:13;;;;;;;16.05;7.65;;;;;;;;;;5073153;28;20562;-49
2023/02/20 06:37:38;;;;;;;23.35;9.10;;;;;;;;;;5073052;28;20371;-51
2023/02/20 06:40:04;;;;;;;14.20;7.05;;;;;;;;;;5072746;28;20028;-50
2023/02/20 06:42:30;;;;;;;13.77;6.50;;;;;;;;;;5072960;28;20055;-50
2023/02/20 06:44:55;;;;;;;14.57;6.13;;;;;;;;;;5072706;28;20051;-50
2023/02/20 06:47:20;;;;;;;16.15;8.23;;;;;;;;;;5072439;28;20264;-50
2023/02/20 06:49:46;;;;;;;19.58;7.70;;;;;;;;;;5071344;28;20024;-50
2023/02/20 06:52:12;;;;;;;15.70;7.20;;;;;;;;;;5071239;28;20123;-50
2023/02/20 06:54:39;;;;;;;16.38;7.75;;;;;;;;;;5072344;28;20016;-50
2023/02/20 06:57:04;;;;;;;16.27;7.72;;;;;;;;;;5072693;28;20028;-50
2023/02/20 06:59:30;;;;;;;15.00;6.25;;;;;;;;;;5072265;28;20071;-50
2023/02/20 07:01:55;;;;;;;13.55;6.25;;;;;;;;;;5071068;28;20522;-50
2023/02/20 07:04:22;;;;;;;16.60;7.38;;;;;;;;;;5072571;28;20052;-50
2023/02/20 07:06:48;;;;;;;14.77;7.13;;;;;;;;;;5071492;28;20592;-50
2023/02/20 07:09:14;;;;;;;16.85;7.43;;;;;;;;;;5072287;28;20022;-50
2023/02/20 07:11:40;;;;;;;17.90;6.47;;;;;;;;;;5072044;28;20021;-50
2023/02/20 07:14:05;;;;;;;14.85;7.93;;;;;;;;;;5072110;28;20468;-50
2023/02/20 07:16:31;;;;;;;12.10;5.45;;;;;;;;;;5070805;28;20032;-50
2023/02/20 07:18:57;;;;;;;20.85;8.55;;;;;;;;;;5071963;28;20020;-50
2023/02/20 07:21:22;;;;;;;18.58;7.50;;;;;;;;;;5071867;28;20089;-50
2023/02/20 07:23:48;;;;;;;14.75;7.70;;;;;;;;;;5071892;28;20016;-50
2023/02/20 07:26:18;;;;;;;16.83;7.15;;;;;;;;;;5071883;28;20123;-50
2023/02/20 07:28:43;;;;;;;14.73;7.72;;;;;;;;;;5071937;28;20024;-50
2023/02/20 07:31:08;;;;;;;13.15;5.93;;;;;;;;;;5071793;28;20471;-50
2023/02/20 07:33:34;;;;;;;11.38;5.13;;;;;;;;;;5071557;28;20049;-50
2023/02/20 07:36:00;;;;;;;15.55;6.85;;;;;;;;;;5072059;28;20024;-49
2023/02/20 07:38:25;;;;;;;17.83;7.47;;;;;;;;;;5071635;28;20417;-50
2023/02/20 07:40:50;;;;;;;13.73;5.95;;;;;;;;;;5071737;28;20120;-49
2023/02/20 07:43:16;;;;;;;8.35;5.55;;;;;;;;;;5071812;28;20065;-50
2023/02/20 07:45:41;;;;;;;10.50;5.88;;;;;;;;;;5071667;28;20064;-50
2023/02/20 07:48:06;;;;;;;12.30;5.95;;;;;;;;;;5071578;28;20066;-50
2023/02/20 07:50:32;;;;;;;18.73;7.25;;;;;;;;;;5071464;28;20033;-50
2023/02/20 07:52:57;;;;;;;17.52;6.45;;;;;;;;;;5071577;28;20021;-49
2023/02/20 07:55:23;;;;;;;13.02;6.10;;;;;;;;;;5071424;28;20451;-50
2023/02/20 07:57:53;;;;;;;14.98;7.38;;;;;;;;;;5071515;28;20044;-50
2023/02/20 08:00:19;;;;;;;14.85;7.35;;;;;;;;;;5071409;28;20027;-49
2023/02/20 08:02:45;;;;;;;16.77;7.85;;;;;;;;;;5071433;28;20016;-49
2023/02/20 08:05:11;;;;;;;18.45;7.88;;;;;;;;;;5071466;28;20510;-50
2023/02/20 08:07:37;;;;;;;13.18;6.50;;;;;;;;;;5071221;28;20044;-50
2023/02/20 08:10:03;;;;;;;16.70;7.32;;;;;;;;;;5070483;28;20119;-50
2023/02/20 08:12:29;;;;;;;17.13;8.05;;;;;;;;;;5071598;28;20446;-50
2023/02/20 08:14:54;;;;;;;14.05;6.82;;;;;;;;;;5071585;28;20084;-50
2023/02/20 08:17:20;;;;;;;14.80;8.30;;;;;;;;;;5071650;28;20032;-50
2023/02/20 08:19:46;;;;;;;9.02;4.53;;;;;;;;;;5075527;28;20727;-49
2023/02/20 08:22:11;;;;;;;13.57;6.38;;;;;;;;;;5075467;28;20021;-50
2023/02/20 08:24:37;;;;;;;18.75;8.50;;;;;;;;;;5074140;28;20037;-50
2023/02/20 08:27:03;;;;;;;18.58;8.40;;;;;;;;;;5073984;28;20032;-49
2023/02/20 08:29:28;;;;;;;14.05;6.70;;;;;;;;;;5075516;28;20464;-49
2023/02/20 08:31:54;;;;;;;9.95;5.00;;;;;;;;;;5075488;28;20021;-50
2023/02/20 08:34:20;;;;;;;13.13;6.75;;;;;;;;;;5074968;28;20128;-50
2023/02/20 08:36:45;;;;;;;15.50;8.23;;;;;;;;;;5075432;28;20046;-50
2023/02/20 08:39:10;;;;;;;15.43;7.60;;;;;;;;;;5075123;28;20542;-50
2023/02/20 08:41:46;;;;;;;16.05;6.82;;;;;;;;;;5073665;28;20024;-50
2023/02/20 08:44:12;;;;;;;12.95;6.32;;;;;;;;;;5075045;28;20127;-50
2023/02/20 08:46:44;;;;;;;19.42;8.07;;;;;;;;;;5074804;28;20509;-50
2023/02/20 08:49:10;;;;;;;16.80;7.10;;;;;;;;;;5074904;28;20115;-49
2023/02/20 08:51:35;;;;;;;11.35;6.15;;;;;;;;;;5073611;28;20099;-50
2023/02/20 08:54:00;;;;;;;15.93;5.38;;;;;;;;;;5074840;28;20086;-50
2023/02/20 08:56:26;;;;;;;12.90;6.57;;;;;;;;;;5074639;28;20016;-50
2023/02/20 08:58:52;;;;;;;12.30;6.45;;;;;;;;;;5074828;28;20082;-50
2023/02/20 09:01:17;;;;;;;15.68;5.85;;;;;;;;;;5074646;28;20461;-50
2023/02/20 09:03:43;;;;;;;13.05;6.15;;;;;;;;;;5074607;28;20037;-50
2023/02/20 09:06:08;;;;;;;17.85;7.22;;;;;;;;;;5074576;28;20031;-50
2023/02/20 09:08:34;;;;;;;14.05;6.57;;;;;;;;;;5074440;28;20498;-50
2023/02/20 09:10:59;;;;;;;16.90;6.03;;;;;;;;;;5074573;28;20058;-50
2023/02/20 09:13:25;;;;;;;16.38;6.85;;;;;;;;;;5074297;28;20082;-50
2023/02/20 09:15:50;;;;;;;14.57;6.53;;;;;;;;;;5074474;28;20023;-50
2023/02/20 09:18:15;;;;;;;13.77;6.45;;;;;;;;;;5074669;28;20368;-50
2023/02/20 09:20:41;;;;;;;11.70;5.88;;;;;;;;;;5074277;28;20485;-50
2023/02/20 09:23:07;;;;;;;12.93;6.50;;;;;;;;;;5074464;28;20020;-50
2023/02/20 09:25:33;;;;;;;10.25;5.20;;;;;;;;;;5074208;28;20024;-49
2023/02/20 09:27:58;;;;;;;13.82;6.35;;;;;;;;;;5074174;28;20044;-49
2023/02/20 09:30:23;;;;;;;12.50;5.78;;;;;;;;;;5072494;28;20056;-50
2023/02/20 09:32:49;;;;;;;10.43;6.13;;;;;;;;;;5074023;28;20117;-50
2023/02/20 09:35:20;;;;;;;12.25;5.93;;;;;;;;;;5074045;28;20036;-50
2023/02/20 09:37:45;;;;;;;12.30;5.28;;;;;;;;;;5074077;28;20029;-50
2023/02/20 09:40:11;;;;;;;11.52;5.38;;;;;;;;;;5073989;28;20028;-50
2023/02/20 09:42:40;;;;;;;9.65;5.95;;;;;;;;;;5073879;28;20537;-50
2023/02/20 09:45:05;;;;;;;13.70;6.15;;;;;;;;;;5074002;28;20169;-50
2023/02/20 09:47:40;;;;;;;10.30;5.65;;;;;;;;;;5073728;28;20135;-50
2023/02/20 09:50:11;;;;;;;12.20;6.60;;;;;;;;;;5073882;28;20376;-50
2023/02/20 09:52:39;;;;;;;21.90;7.27;;;;;;;;;;5073639;28;20051;-50
2023/02/20 09:55:07;;;;;;;10.93;5.90;;;;;;;;;;5074065;28;20099;-50
2023/02/20 09:57:34;;;;;;;16.08;5.78;;;;;;;;;;5072291;28;20039;-50
2023/02/20 10:00:11;;;;;;;7.97;4.25;;;;;;;;;;5073737;28;20099;-50
2023/02/20 10:02:39;;;;;;;9.15;5.85;;;;;;;;;;5073618;28;20036;-50
2023/02/20 10:05:09;;;;;;;13.68;4.63;;;;;;;;;;5073569;28;20061;-50
2023/02/20 10:07:41;;;;;;;13.70;5.47;;;;;;;;;;5073255;28;20479;-50
2023/02/20 10:10:24;;;;;;;18.10;5.70;;;;;;;;;;5073451;28;20025;-50
2023/02/20 10:13:06;;;;;;;11.63;6.72;;;;;;;;;;5073636;28;20606;-50
2023/02/20 10:15:43;;;;;;;6.35;3.95;;;;;;;;;;5073582;28;20032;-50
2023/02/20 10:18:27;;;;;;;13.05;5.10;;;;;;;;;;5073563;28;20060;-50
2023/02/20 10:21:12;;;;;;;14.57;6.95;;;;;;;;;;5073090;28;20066;-50
2023/02/20 10:23:42;;;;;;;7.63;4.78;;;;;;;;;;5031540;28;20044;-50
2023/02/20 10:26:11;;;;;;;12.32;4.60;;;;;;;;;;5072993;28;20195;-50
2023/02/20 10:28:36;;;;;;;9.77;4.70;;;;;;;;;;5073019;28;20044;-50
2023/02/20 10:31:05;;;;;;;9.27;5.03;;;;;;;;;;5072970;28;20017;-50
2023/02/20 10:33:42;;;;;;;15.40;6.80;;;;;;;;;;5072736;28;20059;-50
2023/02/20 10:36:29;;;;;;;10.23;5.13;;;;;;;;;;5072870;28;20033;-50
2023/02/20 10:39:01;;;;;;;10.05;4.07;;;;;;;;;;5072868;28;20043;-50
2023/02/20 10:41:32;;;;;;;5.83;3.97;;;;;;;;;;5071899;28;20025;-50
2023/02/20 10:44:04;;;;;;;9.18;4.32;;;;;;;;;;5073079;28;20447;-50
2023/02/20 10:46:32;;;;;;;13.20;5.43;;;;;;;;;;5072822;28;20041;-50
2023/02/20 10:49:01;;;;;;;8.10;4.43;;;;;;;;;;5072934;28;20029;-50
2023/02/20 10:51:41;;;;;;;13.88;6.30;;;;;;;;;;5072487;28;20037;-50
2023/02/20 10:54:09;;;;;;;11.20;5.82;;;;;;;;;;5072474;28;20497;-50
2023/02/20 10:56:34;;;;;;;7.72;4.60;;;;;;;;;;5071131;28;20050;-50
2023/02/20 10:59:09;;;;;;;9.60;5.20;;;;;;;;;;5072725;28;20147;-49
2023/02/20 11:01:35;;;;;;;14.13;7.20;;;;;;;;;;5072181;28;20029;-50
2023/02/20 11:04:00;;;;;;;12.93;4.75;;;;;;;;;;5072433;28;20027;-50
2023/02/20 11:06:30;;;;;;;11.73;4.90;;;;;;;;;;5072224;28;20032;-50
2023/02/20 11:08:56;;;;;;;12.10;5.15;;;;;;;;;;5072522;28;20382;-50
2023/02/20 11:11:30;;;;;;;14.50;6.25;;;;;;;;;;5072120;28;20024;-50
2023/02/20 11:13:59;;;;;;;9.10;4.82;;;;;;;;;;5072417;28;20040;-50
2023/02/20 11:16:28;;;;;;;8.00;4.28;;;;;;;;;;5072121;28;20416;-50
2023/02/20 11:19:00;;;;;;;11.75;5.05;;;;;;;;;;5072341;28;20025;-50
2023/02/20 11:21:35;;;;;;;12.35;5.03;;;;;;;;;;5072250;28;20040;-50
2023/02/20 11:24:24;;;;;;;14.25;6.30;;;;;;;;;;5072043;28;20593;-50
2023/02/20 11:26:50;;;;;;;13.15;5.80;;;;;;;;;;5060997;28;20044;-50
2023/02/20 11:29:18;;;;;;;10.68;5.22;;;;;;;;;;5072265;28;20020;-50
2023/02/20 11:31:44;;;;;;;14.45;6.25;;;;;;;;;;5071793;28;20040;-50
2023/02/20 11:34:15;;;;;;;11.45;6.05;;;;;;;;;;5071664;28;20094;-50
2023/02/20 11:37:03;;;;;;;10.10;6.22;;;;;;;;;;5070453;28;20472;-50
2023/02/20 11:39:29;;;;;;;9.85;6.05;;;;;;;;;;5072062;28;20032;-50
2023/02/20 11:42:16;;;;;;;10.73;7.18;;;;;;;;;;5071649;28;20140;-49
2023/02/20 11:44:42;;;;;;;15.30;6.03;;;;;;;;;;5071604;28;20045;-50
2023/02/20 11:47:10;;;;;;;14.60;5.75;;;;;;;;;;5071649;28;20033;-50
2023/02/20 11:49:36;;;;;;;12.43;5.85;;;;;;;;;;5071535;28;20024;-52
2023/02/20 11:52:07;;;;;;;16.52;6.53;;;;;;;;;;5071492;28;20023;-50
2023/02/20 11:54:32;;;;;;;19.25;6.22;;;;;;;;;;5071503;28;20033;-50
2023/02/20 11:57:10;;;;;;;13.68;6.00;;;;;;;;;;5070331;28;20103;-50
2023/02/20 11:59:40;;;;;;;13.45;6.63;;;;;;;;;;5071333;28;20048;-50
2023/02/20 12:02:17;;;;;;;8.82;6.05;;;;;;;;;;5071472;28;20032;-50
2023/02/20 12:04:43;;;;;;;16.42;7.85;;;;;;;;;;5071557;28;20029;-50
2023/02/20 12:07:29;;;;;;;7.30;3.38;;;;;;;;;;5071402;28;20170;-50
2023/02/20 12:09:58;;;;;;;13.50;6.28;;;;;;;;;;5071606;28;20119;-50
2023/02/20 12:12:26;;;;;;;12.50;5.65;;;;;;;;;;5071314;28;20025;-50
2023/02/20 12:14:51;;;;;;;12.38;6.45;;;;;;;;;;5071385;28;20120;-50
2023/02/20 12:17:32;;;;;;;14.13;6.25;;;;;;;;;;5071383;28;20120;-50
2023/02/20 12:20:17;;;;;;;9.45;4.45;;;;;;;;;;5071253;28;20043;-50
2023/02/20 12:23:01;;;;;;;10.23;6.40;;;;;;;;;;5071183;28;20043;-50
2023/02/20 12:25:30;;;;;;;13.10;5.18;;;;;;;;;;5071491;28;20035;-50
2023/02/20 12:27:58;;;;;;;12.00;5.45;;;;;;;;;;5071123;28;20154;-50
2023/02/20 12:30:42;;;;;;;10.77;5.25;;;;;;;;;;5071099;28;20028;-50
2023/02/20 12:33:20;;;;;;;11.77;6.40;;;;;;;;;;5071091;28;20064;-50
2023/02/20 12:36:04;;;;;;;13.52;6.25;;;;;;;;;;5071071;28;20023;-50
2023/02/20 12:38:49;;;;;;;13.05;5.40;;;;;;;;;;5071168;28;20075;-50
2023/02/20 12:41:21;;;;;;;11.00;6.35;;;;;;;;;;5071066;28;20115;-50
2023/02/20 12:44:05;;;;;;;10.82;6.30;;;;;;;;;;5071108;28;20025;-50
2023/02/20 12:46:43;;;;;;;11.70;6.00;;;;;;;;;;5070944;28;20059;-50
2023/02/20 12:49:16;;;;;;;10.18;5.15;;;;;;;;;;5069804;28;20120;-50
2023/02/20 12:51:48;;;;;;;13.85;6.70;;;;;;;;;;5070922;28;20060;-50
2023/02/20 12:54:27;;;;;;;12.55;3.75;;;;;;;;;;5071004;28;20039;-51
2023/02/20 12:57:11;;;;;;;9.32;5.55;;;;;;;;;;5071083;28;20024;-50
2023/02/20 12:59:45;;;;;;;3.72;2.47;;;;;;;;;;5070880;28;20097;-50
2023/02/20 13:02:21;;;;;;;10.18;5.00;;;;;;;;;;5071126;28;20083;-50
2023/02/20 13:04:52;;;;;;;12.70;6.32;;;;;;;;;;5073374;28;20044;-50
2023/02/20 13:07:32;;;;;;;11.90;5.63;;;;;;;;;;5073325;28;20040;-50
2023/02/20 13:10:16;;;;;;;9.15;4.75;;;;;;;;;;5074584;28;20497;-50
2023/02/20 13:12:41;;;;;;;9.98;4.75;;;;;;;;;;5074617;28;20179;-50
2023/02/20 13:15:13;;;;;;;12.25;5.10;;;;;;;;;;5074775;28;20406;-50
2023/02/20 13:17:41;;;;;;;7.25;4.47;;;;;;;;;;5074696;28;20060;-50
2023/02/20 13:20:27;;;;;;;10.30;4.47;;;;;;;;;;5074388;28;20013;-50
2023/02/20 13:22:58;;;;;;;15.55;6.75;;;;;;;;;;5074313;28;20033;-50
2023/02/20 13:25:30;;;;;;;8.32;4.70;;;;;;;;;;5074268;28;20027;-50
2023/02/20 13:27:59;;;;;;;21.95;7.22;;;;;;;;;;5074338;28;20638;-50
2023/02/20 13:30:27;;;;;;;13.48;6.28;;;;;;;;;;5074193;28;20419;-50
2023/02/20 13:33:13;;;;;;;10.75;4.50;;;;;;;;;;5074180;28;20407;-50
2023/02/20 13:35:50;;;;;;;10.23;4.47;;;;;;;;;;5074112;28;20028;-50
2023/02/20 13:38:18;;;;;;;9.80;4.53;;;;;;;;;;5073982;28;20200;-50
2023/02/20 13:40:43;;;;;;;5.95;2.75;;;;;;;;;;5073975;28;20029;-50
2023/02/20 13:43:12;;;;;;;12.40;5.63;;;;;;;;;;5073922;28;20025;-51
2023/02/20 13:45:47;;;;;;;12.82;6.93;;;;;;;;;;5073938;28;20032;-50
2023/02/20 13:48:36;;;;;;;13.43;4.35;;;;;;;;;;5072737;28;20040;-50
2023/02/20 13:51:14;;;;;;;12.27;6.15;;;;;;;;;;5073821;28;20098;-50
2023/02/20 13:53:43;;;;;;;18.52;7.88;;;;;;;;;;5073708;28;20475;-50
2023/02/20 13:56:15;;;;;;;18.73;7.95;;;;;;;;;;5074031;28;20115;-51
2023/02/20 13:58:41;;;;;;;7.82;3.80;;;;;;;;;;5055715;28;20042;-50
2023/02/20 14:01:07;;;;;;;13.25;7.07;;;;;;;;;;5073588;28;20028;-50
2023/02/20 14:03:33;;;;;;;17.55;8.13;;;;;;;;;;5073370;28;20021;-50
2023/02/20 14:06:06;;;;;;;12.20;5.90;;;;;;;;;;5073570;28;20017;-50
2023/02/20 14:08:32;;;;;;;15.80;6.35;;;;;;;;;;5073394;28;20076;-50
2023/02/20 14:11:08;;;;;;;14.00;6.43;;;;;;;;;;5073711;28;20418;-50
2023/02/20 14:13:35;;;;;;;6.60;5.53;;;;;;;;;;5073293;28;20090;-50
2023/02/20 14:16:01;;;;;;;11.38;6.95;;;;;;;;;;5072044;28;20020;-50
2023/02/20 14:18:28;;;;;;;13.35;6.65;;;;;;;;;;5073164;28;20044;-50
2023/02/20 14:21:17;;;;;;;19.48;8.55;;;;;;;;;;5073267;28;20032;-50
2023/02/20 14:23:43;;;;;;;17.63;7.78;;;;;;;;;;5061034;28;20063;-50
2023/02/20 14:26:18;;;;;;;11.10;6.88;;;;;;;;;;5073363;28;20097;-50
2023/02/20 14:28:45;;;;;;;12.00;5.93;;;;;;;;;;5073290;28;20117;-50
2023/02/20 14:31:45;;;;;;;14.02;5.95;;;;;;;;;;5072991;28;20020;-50
2023/02/20 14:34:26;;;;;;;12.85;7.10;;;;;;;;;;4991112;28;20057;-50
2023/02/20 14:36:58;;;;;;;11.25;5.55;;;;;;;;;;5064016;28;20051;-50
2023/02/20 14:39:50;;;;;;;12.63;5.88;;;;;;;;;;5073058;28;20028;-50
2023/02/20 14:42:18;;;;;;;12.48;5.75;;;;;;;;;;5067384;28;20395;-50
2023/02/20 14:44:47;;;;;;;9.50;4.60;;;;;;;;;;5072683;28;20501;-50
2023/02/20 14:47:14;;;;;;;9.35;5.25;;;;;;;;;;5071338;28;20032;-50
2023/02/20 14:49:40;;;;;;;10.32;5.38;;;;;;;;;;5072605;28;20119;-50
2023/02/20 14:52:09;;;;;;;10.65;5.55;;;;;;;;;;5072530;28;20032;-51
2023/02/20 14:54:35;;;;;;;9.20;6.07;;;;;;;;;;5072507;28;20020;-49
2023/02/20 14:57:03;;;;;;;17.77;7.03;;;;;;;;;;5072578;28;20024;-50
2023/02/20 14:59:35;;;;;;;10.77;6.22;;;;;;;;;;5072566;28;20124;-50